Time;durP1;ratioP1;P1;durP2;ratioP2;P2;SDS_P1;SDS_P2;PMS_P1;PMS_P2;Temp;Humidity;BMP_temperature;BMP_pressure;BME280_temperature;BME280_humidity;BME280_pressure;Samples;Min_cycle;Max_cycle;Signal;HPM_P1;HPM_P2
2023/10/03 00:00:31;;;;;;;30.95;14.02;;;15.20;80.80;;;;;;4987148;28;20446;-63
2023/10/03 00:03:08;;;;;;;32.63;13.57;;;15.20;80.80;;;;;;4987366;28;20466;-63
2023/10/03 00:05:35;;;;;;;32.08;13.98;;;15.20;81.10;;;;;;4986804;28;20491;-62
2023/10/03 00:08:06;;;;;;;32.78;14.95;;;15.20;81.00;;;;;;4987767;28;20034;-63
2023/10/03 00:10:38;;;;;;;32.25;14.63;;;15.20;80.90;;;;;;4987048;28;21152;-63
2023/10/03 00:13:07;;;;;;;33.83;14.68;;;15.20;80.90;;;;;;4987687;28;20034;-62
2023/10/03 00:15:33;;;;;;;30.55;13.98;;;15.10;80.80;;;;;;4987856;28;20022;-63
2023/10/03 00:17:58;;;;;;;29.85;14.20;;;15.10;80.80;;;;;;4987353;28;20045;-63
2023/10/03 00:20:24;;;;;;;34.60;15.52;;;15.10;81.00;;;;;;4987562;28;20034;-63
2023/10/03 00:22:51;;;;;;;28.70;13.30;;;15.10;81.20;;;;;;4986036;28;20080;-62
2023/10/03 00:25:18;;;;;;;28.38;13.43;;;15.10;81.20;;;;;;4986957;28;20387;-62
2023/10/03 00:27:49;;;;;;;27.67;13.48;;;15.10;81.00;;;;;;4987367;28;20034;-62
2023/10/03 00:30:24;;;;;;;29.20;14.13;;;15.10;81.20;;;;;;4986848;28;20042;-63
2023/10/03 00:32:53;;;;;;;;;;;15.10;81.20;;;;;;4986299;28;20065;-62
2023/10/03 00:35:22;;;;;;;27.92;13.32;;;15.10;81.40;;;;;;4986912;28;19913;-63
2023/10/03 00:37:51;;;;;;;31.08;14.07;;;15.10;80.70;;;;;;4986698;28;20046;-63
2023/10/03 00:43:01;;;;;;;28.15;13.32;;;15.10;80.60;;;;;;4985585;28;20057;-63
2023/10/03 00:45:29;;;;;;;31.85;13.70;;;15.10;80.80;;;;;;4986760;28;20761;-62
2023/10/03 00:48:11;;;;;;;32.35;14.77;;;15.10;80.50;;;;;;4987052;28;20038;-62
2023/10/03 00:50:38;;;;;;;30.75;13.60;;;15.10;81.30;;;;;;4985963;28;20667;-63
2023/10/03 00:53:06;;;;;;;33.17;14.80;;;15.10;80.40;;;;;;4987562;28;20461;-61
2023/10/03 00:55:33;;;;;;;28.40;13.57;;;15.00;80.30;;;;;;4985450;28;20038;-63
2023/10/03 01:00:31;;;;;;;30.02;13.60;;;15.00;80.80;;;;;;4986053;28;20548;-63
2023/10/03 01:02:57;;;;;;;32.05;14.52;;;14.90;80.80;;;;;;4985185;28;20336;-63
2023/10/03 01:05:23;;;;;;;38.25;15.55;;;14.90;81.00;;;;;;4986079;28;20077;-62
2023/10/03 01:07:49;;;;;;;31.02;14.38;;;14.90;81.20;;;;;;4986154;28;20474;-63
2023/10/03 01:10:20;;;;;;;32.30;14.85;;;14.90;81.30;;;;;;4984387;28;20117;-63
2023/10/03 01:12:47;;;;;;;35.42;14.40;;;14.90;81.40;;;;;;4984932;28;20042;-63
2023/10/03 01:15:16;;;;;;;30.30;14.48;;;14.90;81.40;;;;;;4981071;28;20045;-63
2023/10/03 01:17:44;;;;;;;31.25;14.15;;;14.90;81.30;;;;;;4986155;28;20113;-63
2023/10/03 01:20:17;;;;;;;31.50;13.95;;;14.90;81.20;;;;;;4985783;28;20117;-61
2023/10/03 01:22:48;;;;;;;28.77;13.70;;;14.90;81.20;;;;;;4985935;28;20042;-63
2023/10/03 01:25:16;;;;;;;31.38;13.85;;;14.90;81.30;;;;;;4987033;28;20073;-63
2023/10/03 01:27:41;;;;;;;34.85;15.15;;;14.90;81.20;;;;;;4986130;28;20042;-63
2023/10/03 01:30:08;;;;;;;39.92;16.77;;;14.90;81.00;;;;;;4987540;28;20113;-63
2023/10/03 01:32:38;;;;;;;38.15;16.70;;;14.90;81.80;;;;;;4986449;28;20038;-63
2023/10/03 01:35:09;;;;;;;36.92;15.82;;;14.90;82.00;;;;;;4990087;28;20046;-64
2023/10/03 01:37:35;;;;;;;31.02;14.60;;;14.80;82.00;;;;;;4995837;28;20030;-63
2023/10/03 01:40:00;;;;;;;27.35;13.32;;;14.80;81.80;;;;;;4985868;28;20041;-63
2023/10/03 01:42:26;;;;;;;28.95;13.90;;;14.80;81.50;;;;;;4984017;28;20038;-63
2023/10/03 01:44:51;;;;;;;32.75;13.85;;;14.80;81.40;;;;;;4986258;28;20078;-63
2023/10/03 01:47:17;;;;;;;26.95;13.60;;;14.80;81.50;;;;;;4985101;28;20042;-61
2023/10/03 01:49:43;;;;;;;33.72;15.25;;;14.70;81.30;;;;;;4985384;28;20509;-63
2023/10/03 01:52:08;;;;;;;29.48;13.43;;;14.70;81.30;;;;;;4985850;28;20046;-63
2023/10/03 01:54:34;;;;;;;29.48;13.10;;;14.70;81.20;;;;;;4985257;28;20506;-63
2023/10/03 01:57:00;;;;;;;28.75;13.43;;;14.70;81.20;;;;;;4985180;28;20039;-62
2023/10/03 01:59:26;;;;;;;30.83;13.77;;;14.70;81.00;;;;;;4985456;28;20065;-63
2023/10/03 02:01:52;;;;;;;31.38;14.00;;;14.70;80.90;;;;;;4985472;28;20034;-62
2023/10/03 02:04:17;;;;;;;30.00;13.80;;;14.70;80.90;;;;;;4985360;28;20046;-61
2023/10/03 02:06:44;;;;;;;30.35;13.90;;;14.60;80.80;;;;;;4986432;28;20069;-63
2023/10/03 02:09:10;;;;;;;36.33;15.57;;;14.60;80.70;;;;;;4989143;28;20188;-62
2023/10/03 02:11:37;;;;;;;37.17;16.35;;;14.60;81.00;;;;;;4987593;28;20114;-62
2023/10/03 02:14:07;;;;;;;38.97;17.50;;;14.50;81.50;;;;;;4989261;28;20093;-63
2023/10/03 02:16:38;;;;;;;36.72;15.60;;;14.40;82.10;;;;;;4988688;28;20489;-63
2023/10/03 02:19:06;;;;;;;37.88;16.90;;;14.40;82.70;;;;;;4989463;28;20417;-62
2023/10/03 02:21:32;;;;;;;38.70;17.35;;;14.40;83.00;;;;;;4989298;28;20078;-62
2023/10/03 02:23:57;;;;;;;34.47;15.93;;;14.30;83.10;;;;;;4989554;28;20042;-62
2023/10/03 02:26:28;;;;;;;38.50;16.92;;;14.30;83.30;;;;;;4989615;28;20033;-62
2023/10/03 02:28:54;;;;;;;38.67;16.95;;;14.30;83.30;;;;;;4989076;28;20045;-62
2023/10/03 02:31:20;;;;;;;38.38;16.73;;;14.30;83.30;;;;;;4988654;28;20030;-63
2023/10/03 02:33:46;;;;;;;36.53;16.52;;;14.30;83.40;;;;;;4988429;28;20037;-63
2023/10/03 02:36:12;;;;;;;37.15;16.60;;;14.30;83.40;;;;;;4988752;28;20034;-63
2023/10/03 02:38:38;;;;;;;37.58;16.70;;;14.20;83.40;;;;;;4988246;28;20069;-62
2023/10/03 02:41:06;;;;;;;38.17;17.58;;;14.30;83.40;;;;;;4989074;28;20030;-63
2023/10/03 02:43:34;;;;;;;36.72;17.02;;;14.30;83.30;;;;;;4987955;28;20039;-63
2023/10/03 02:46:00;;;;;;;41.83;17.38;;;14.20;83.40;;;;;;4988461;28;20030;-62
2023/10/03 02:48:26;;;;;;;38.38;17.30;;;14.20;83.80;;;;;;4987990;28;20034;-62
2023/10/03 02:50:52;;;;;;;39.90;16.70;;;14.20;84.20;;;;;;4988917;28;20065;-63
2023/10/03 02:53:19;;;;;;;36.80;16.63;;;14.20;84.30;;;;;;4988708;28;20030;-62
2023/10/03 02:55:46;;;;;;;37.88;17.20;;;14.20;84.50;;;;;;4987300;28;20056;-62
2023/10/03 02:58:13;;;;;;;40.63;17.27;;;14.20;84.50;;;;;;4988650;28;20042;-63
2023/10/03 03:00:39;;;;;;;38.58;16.45;;;14.20;84.20;;;;;;4987921;28;20037;-63
2023/10/03 03:03:09;;;;;;;38.53;16.30;;;14.20;84.10;;;;;;4988643;28;20038;-62
2023/10/03 03:05:36;;;;;;;36.58;16.05;;;14.30;84.30;;;;;;4988172;28;20426;-62
2023/10/03 03:10:42;;;;;;;35.92;15.60;;;14.30;84.20;;;;;;4986649;28;20497;-62
2023/10/03 03:13:08;;;;;;;36.28;15.52;;;14.40;84.00;;;;;;4987270;28;20034;-62
2023/10/03 03:15:37;;;;;;;35.40;15.30;;;14.40;84.00;;;;;;4987565;28;20053;-63
2023/10/03 03:18:02;;;;;;;39.33;16.35;;;14.50;84.10;;;;;;4988099;28;20037;-63
2023/10/03 03:20:36;;;;;;;63.33;29.92;;;14.40;83.80;;;;;;4987360;28;20046;-62
2023/10/03 03:23:02;;;;;;;67.15;31.33;;;14.50;83.80;;;;;;4988114;28;20114;-62
2023/10/03 03:25:37;;;;;;;58.97;29.08;;;14.50;83.80;;;;;;4988139;28;20070;-63
2023/10/03 03:28:12;;;;;;;51.58;23.85;;;14.50;83.70;;;;;;4988473;28;20037;-63
2023/10/03 03:30:45;;;;;;;41.97;20.33;;;14.60;84.00;;;;;;4986471;28;20046;-61
2023/10/03 03:33:19;;;;;;;40.08;18.33;;;14.60;83.90;;;;;;4988327;28;20065;-61
2023/10/03 03:35:46;;;;;;;34.85;16.98;;;14.60;84.00;;;;;;4988219;28;20073;-63
2023/10/03 03:38:20;;;;;;;35.92;16.05;;;14.60;83.80;;;;;;4987723;28;20061;-63
2023/10/03 03:40:47;;;;;;;33.30;15.18;;;14.60;83.80;;;;;;4987978;28;20126;-62
2023/10/03 03:43:16;;;;;;;36.67;15.02;;;14.60;83.80;;;;;;4987924;28;20053;-63
2023/10/03 03:45:43;;;;;;;32.38;14.68;;;14.60;84.00;;;;;;4987851;28;20034;-61
2023/10/03 03:48:09;;;;;;;29.42;13.68;;;14.70;84.00;;;;;;4987470;28;20058;-61
2023/10/03 03:50:35;;;;;;;33.33;14.43;;;14.70;84.00;;;;;;4987067;28;20607;-63
2023/10/03 03:53:02;;;;;;;31.98;13.75;;;14.70;83.90;;;;;;4987746;28;20402;-63
2023/10/03 03:55:29;;;;;;;29.98;13.40;;;14.70;84.10;;;;;;4986885;28;20030;-62
2023/10/03 03:57:59;;;;;;;34.17;13.80;;;14.70;84.40;;;;;;4987905;28;20030;-61
2023/10/03 04:00:31;;;;;;;32.08;13.32;;;14.80;84.90;;;;;;4986872;28;20506;-63
2023/10/03 04:03:00;;;;;;;29.83;12.77;;;14.80;84.90;;;;;;4987243;28;20045;-61
2023/10/03 04:05:27;;;;;;;31.05;12.77;;;14.80;85.10;;;;;;4987203;28;20549;-63
2023/10/03 04:07:54;;;;;;;32.70;13.45;;;14.70;85.30;;;;;;4987285;28;20046;-62
2023/10/03 04:10:21;;;;;;;31.42;12.82;;;14.80;85.50;;;;;;4986992;28;20038;-63
2023/10/03 04:12:49;;;;;;;31.10;13.57;;;14.70;85.50;;;;;;4984993;28;20533;-62
2023/10/03 04:15:15;;;;;;;32.47;14.57;;;14.70;85.30;;;;;;4987023;28;20061;-63
2023/10/03 04:17:42;;;;;;;31.40;13.82;;;14.70;84.90;;;;;;4987374;28;20041;-63
2023/10/03 04:20:31;;;;;;;30.58;14.13;;;14.70;84.60;;;;;;4986868;28;20410;-61
2023/10/03 04:22:55;;;;;;;31.58;14.00;;;14.70;84.40;;;;;;4985717;28;20089;-62
2023/10/03 04:25:21;;;;;;;32.35;13.73;;;14.70;84.10;;;;;;4987002;28;20034;-61
2023/10/03 04:27:47;;;;;;;32.40;14.25;;;14.70;84.30;;;;;;4986968;28;20662;-62
2023/10/03 04:30:13;;;;;;;32.08;13.63;;;14.60;84.50;;;;;;4985142;28;20531;-63
2023/10/03 04:32:41;;;;;;;34.97;14.55;;;14.60;84.60;;;;;;4986243;28;20030;-62
2023/10/03 04:35:13;;;;;;;33.83;14.00;;;14.60;84.80;;;;;;4987151;28;20114;-62
2023/10/03 04:37:41;;;;;;;30.45;13.25;;;14.60;84.90;;;;;;4987037;28;20117;-62
2023/10/03 04:40:21;;;;;;;30.95;13.63;;;14.60;84.80;;;;;;4986993;28;20030;-62
2023/10/03 04:42:50;;;;;;;32.35;12.88;;;14.60;85.00;;;;;;4985617;28;20116;-62
2023/10/03 04:45:18;;;;;;;29.48;12.77;;;14.60;85.20;;;;;;4985968;28;20040;-62
2023/10/03 04:47:45;;;;;;;30.85;13.13;;;14.70;85.60;;;;;;4986376;28;20031;-62
2023/10/03 04:50:11;;;;;;;34.65;13.88;;;14.70;85.70;;;;;;4986835;28;20121;-62
2023/10/03 04:52:41;;;;;;;31.60;13.85;;;14.60;85.50;;;;;;4985021;28;20034;-62
2023/10/03 04:55:07;;;;;;;33.75;14.98;;;14.70;85.70;;;;;;4985454;28;20039;-62
2023/10/03 04:57:33;;;;;;;34.13;14.13;;;14.70;85.50;;;;;;4986064;28;20101;-63
2023/10/03 04:59:59;;;;;;;30.13;12.98;;;14.70;85.40;;;;;;4986557;28;20038;-63
2023/10/03 05:02:28;;;;;;;27.42;12.60;;;14.70;85.60;;;;;;4985001;28;20048;-63
2023/10/03 05:04:56;;;;;;;30.27;12.75;;;14.60;85.90;;;;;;4986240;28;20042;-62
2023/10/03 05:07:26;;;;;;;30.70;13.10;;;14.70;86.20;;;;;;4986186;28;20597;-63
2023/10/03 05:09:51;;;;;;;24.80;12.05;;;14.70;86.10;;;;;;4985513;28;20038;-62
2023/10/03 05:12:18;;;;;;;27.80;13.13;;;14.70;86.00;;;;;;4984618;28;20406;-63
2023/10/03 05:14:46;;;;;;;29.88;13.45;;;14.70;85.80;;;;;;4985580;28;20045;-62
2023/10/03 05:17:12;;;;;;;28.85;13.10;;;14.80;85.60;;;;;;4986473;28;20034;-62
2023/10/03 05:19:39;;;;;;;31.90;13.75;;;14.80;85.50;;;;;;4985974;28;20062;-63
2023/10/03 05:22:08;;;;;;;33.70;13.27;;;14.80;85.20;;;;;;4985476;28;20410;-63
2023/10/03 05:24:34;;;;;;;29.83;13.95;;;14.80;85.10;;;;;;4985451;28;20066;-62
2023/10/03 05:27:00;;;;;;;30.00;13.73;;;14.80;84.90;;;;;;4986887;28;20510;-63
2023/10/03 05:29:27;;;;;;;32.67;14.57;;;14.80;84.80;;;;;;4985218;28;20034;-63
2023/10/03 05:31:54;;;;;;;33.30;14.98;;;14.80;84.60;;;;;;4985141;28;20040;-63
2023/10/03 05:34:22;;;;;;;32.58;14.85;;;14.80;84.50;;;;;;4985212;28;20470;-62
2023/10/03 05:36:49;;;;;;;31.55;14.52;;;14.70;84.60;;;;;;4985456;28;20042;-62
2023/10/03 05:39:15;;;;;;;31.75;14.10;;;14.70;84.90;;;;;;4985625;28;20034;-63
2023/10/03 05:41:42;;;;;;;32.33;14.10;;;14.60;85.20;;;;;;4985589;28;20449;-63
2023/10/03 05:44:11;;;;;;;28.27;13.55;;;14.60;85.50;;;;;;4985771;28;20413;-63
2023/10/03 05:46:43;;;;;;;32.33;14.27;;;14.60;85.70;;;;;;4984882;28;20409;-63
2023/10/03 05:49:09;;;;;;;29.08;14.13;;;14.60;85.90;;;;;;4985731;28;20092;-62
2023/10/03 05:51:35;;;;;;;31.92;13.43;;;14.60;85.60;;;;;;4985320;28;20305;-63
2023/10/03 05:54:02;;;;;;;26.45;12.05;;;14.60;85.70;;;;;;4985919;28;20045;-63
2023/10/03 05:56:28;;;;;;;27.90;12.05;;;14.60;85.90;;;;;;4984284;28;20038;-63
2023/10/03 05:58:54;;;;;;;29.48;12.98;;;14.60;86.00;;;;;;4984025;28;20521;-62
2023/10/03 06:01:20;;;;;;;30.25;13.52;;;14.60;86.10;;;;;;4986326;28;20402;-62
2023/10/03 06:03:45;;;;;;;32.70;14.20;;;14.60;86.10;;;;;;4985679;28;20043;-62
2023/10/03 06:06:11;;;;;;;32.15;14.25;;;14.70;86.00;;;;;;4986294;28;20027;-63
2023/10/03 06:08:36;;;;;;;27.10;13.98;;;14.60;85.90;;;;;;4985809;28;20049;-63
2023/10/03 06:11:05;;;;;;;29.27;13.30;;;14.60;85.90;;;;;;4985555;28;20057;-62
2023/10/03 06:13:31;;;;;;;26.80;12.95;;;14.60;86.00;;;;;;4985606;28;20545;-62
2023/10/03 06:16:00;;;;;;;29.27;13.30;;;14.60;86.40;;;;;;4986331;28;20035;-63
2023/10/03 06:18:29;;;;;;;28.42;12.68;;;14.60;86.60;;;;;;4985561;28;20035;-63
2023/10/03 06:20:57;;;;;;;30.75;13.13;;;14.60;86.80;;;;;;4984910;28;20102;-62
2023/10/03 06:23:23;;;;;;;30.75;13.82;;;14.70;86.90;;;;;;4969859;28;20125;-62
2023/10/03 06:25:48;;;;;;;29.35;13.45;;;14.70;86.90;;;;;;4981196;28;20031;-63
2023/10/03 06:28:14;;;;;;;29.95;14.15;;;14.70;86.80;;;;;;4975193;28;20030;-62
2023/10/03 06:30:39;;;;;;;29.02;13.68;;;14.70;86.80;;;;;;4978587;28;20436;-63
2023/10/03 06:33:07;;;;;;;26.42;12.32;;;14.80;86.90;;;;;;4976445;28;20042;-62
2023/10/03 06:35:32;;;;;;;27.50;12.80;;;14.80;87.30;;;;;;4977773;28;21333;-62
2023/10/03 06:37:58;;;;;;;25.02;12.00;;;14.90;87.90;;;;;;4977333;28;20477;-60
2023/10/03 06:40:24;;;;;;;26.40;11.95;;;14.90;88.50;;;;;;4976232;28;20046;-62
2023/10/03 06:42:49;;;;;;;27.30;11.57;;;15.00;89.20;;;;;;4980659;28;20493;-62
2023/10/03 06:45:15;;;;;;;23.00;11.80;;;15.10;89.80;;;;;;4980230;28;20050;-62
2023/10/03 06:47:41;;;;;;;28.08;12.48;;;15.20;90.10;;;;;;4981241;28;20184;-62
2023/10/03 06:50:07;;;;;;;25.10;11.70;;;15.40;90.30;;;;;;4972721;28;20430;-62
2023/10/03 06:52:35;;;;;;;25.58;12.23;;;15.50;90.30;;;;;;4972775;28;20043;-63
2023/10/03 06:55:03;;;;;;;22.95;10.68;;;15.70;90.30;;;;;;4980126;28;20090;-63
2023/10/03 06:57:29;;;;;;;23.35;10.85;;;15.80;90.20;;;;;;4980768;28;20043;-63
2023/10/03 06:59:54;;;;;;;25.23;11.27;;;16.00;90.20;;;;;;4984390;28;20034;-62
2023/10/03 07:02:21;;;;;;;23.20;10.63;;;16.10;90.10;;;;;;4980176;28;20038;-62
2023/10/03 07:04:46;;;;;;;24.58;10.15;;;16.30;90.00;;;;;;4974372;28;20550;-62
2023/10/03 07:07:12;;;;;;;24.48;10.43;;;16.40;89.60;;;;;;4985887;28;20728;-61
2023/10/03 07:09:38;;;;;;;22.48;10.45;;;16.50;89.30;;;;;;4980523;28;20073;-62
2023/10/03 07:12:07;;;;;;;21.77;10.38;;;16.70;89.00;;;;;;4983564;28;20473;-63
2023/10/03 07:14:35;;;;;;;22.75;10.57;;;16.80;88.90;;;;;;4981791;28;20046;-63
2023/10/03 07:17:01;;;;;;;22.40;10.32;;;17.00;88.60;;;;;;4987012;28;20053;-62
2023/10/03 07:19:26;;;;;;;22.45;10.32;;;17.00;88.30;;;;;;4983380;28;20057;-63
2023/10/03 07:21:53;;;;;;;21.75;10.00;;;17.10;88.20;;;;;;4984973;28;20506;-62
2023/10/03 07:24:20;;;;;;;23.45;10.00;;;17.20;88.10;;;;;;4983345;28;20117;-62
2023/10/03 07:26:46;;;;;;;23.10;10.30;;;17.30;88.10;;;;;;4980727;28;20386;-63
2023/10/03 07:29:12;;;;;;;21.58;10.32;;;17.50;88.00;;;;;;4983384;28;20044;-63
2023/10/03 07:31:38;;;;;;;20.48;9.95;;;17.50;87.70;;;;;;4983186;28;20136;-63
2023/10/03 07:34:04;;;;;;;20.65;10.57;;;17.70;87.50;;;;;;4983405;28;20038;-63
2023/10/03 07:36:29;;;;;;;21.58;10.52;;;17.80;87.10;;;;;;4979766;28;22459;-63
2023/10/03 07:38:55;;;;;;;20.17;10.45;;;17.90;86.70;;;;;;4983513;28;20053;-63
2023/10/03 07:41:21;;;;;;;22.13;10.52;;;18.00;86.60;;;;;;4979066;28;20060;-62
2023/10/03 07:43:48;;;;;;;22.55;9.95;;;18.10;86.20;;;;;;4983419;28;20038;-62
2023/10/03 07:46:26;;;;;;;19.15;9.57;;;18.20;86.00;;;;;;4983171;28;20506;-62
2023/10/03 07:48:52;;;;;;;17.33;9.35;;;18.30;85.80;;;;;;4982144;28;20053;-62
2023/10/03 07:51:20;;;;;;;18.67;9.68;;;18.40;85.60;;;;;;4982538;28;20093;-63
2023/10/03 07:53:47;;;;;;;18.25;9.88;;;18.60;85.30;;;;;;4982161;28;20121;-63
2023/10/03 07:56:17;;;;;;;18.55;9.68;;;18.70;85.20;;;;;;4980030;28;20122;-63
2023/10/03 07:58:44;;;;;;;19.90;9.98;;;18.80;84.90;;;;;;4981901;28;20034;-62
2023/10/03 08:01:13;;;;;;;17.05;9.23;;;18.90;84.80;;;;;;4981919;28;20158;-63
2023/10/03 08:03:39;;;;;;;16.67;8.65;;;19.00;84.40;;;;;;4981593;28;20465;-63
2023/10/03 08:06:05;;;;;;;16.95;9.27;;;19.10;84.10;;;;;;4984780;28;20572;-63
2023/10/03 08:08:30;;;;;;;17.40;9.07;;;19.20;84.00;;;;;;4984153;28;20038;-63
2023/10/03 08:10:58;;;;;;;18.42;9.50;;;19.30;83.70;;;;;;4982263;28;20442;-62
2023/10/03 08:13:23;;;;;;;19.40;9.25;;;19.40;83.40;;;;;;4986422;28;20536;-63
2023/10/03 08:15:49;;;;;;;22.30;9.55;;;19.60;83.00;;;;;;4981430;28;20401;-63
2023/10/03 08:18:17;;;;;;;18.60;9.18;;;19.60;82.70;;;;;;4985590;28;20084;-63
2023/10/03 08:20:44;;;;;;;17.88;9.43;;;19.80;82.30;;;;;;4985565;28;20053;-63
2023/10/03 08:23:09;;;;;;;14.52;8.98;;;19.80;82.00;;;;;;4984317;28;20026;-63
2023/10/03 08:25:35;;;;;;;19.90;9.07;;;20.00;81.90;;;;;;4985123;28;20049;-63
2023/10/03 08:28:01;;;;;;;16.10;8.40;;;20.10;81.70;;;;;;4983937;28;20038;-63
2023/10/03 08:30:29;;;;;;;19.25;8.98;;;20.20;81.30;;;;;;4984708;28;20359;-63
2023/10/03 08:32:57;;;;;;;13.38;7.95;;;20.30;81.30;;;;;;4985407;28;20041;-63
2023/10/03 08:35:37;;;;;;;16.52;8.60;;;20.40;81.00;;;;;;4985273;28;20053;-63
2023/10/03 08:38:12;;;;;;;15.63;7.63;;;20.50;80.40;;;;;;4984789;28;20045;-64
2023/10/03 08:40:44;;;;;;;16.65;8.00;;;20.70;80.00;;;;;;4985326;28;20505;-63
2023/10/03 08:43:11;;;;;;;15.23;7.47;;;20.70;79.40;;;;;;4984237;28;20741;-63
2023/10/03 08:45:42;;;;;;;15.95;8.20;;;20.90;79.40;;;;;;4984286;28;20042;-62
2023/10/03 08:48:09;;;;;;;12.80;7.50;;;21.00;79.00;;;;;;4986158;28;20057;-62
2023/10/03 08:50:43;;;;;;;15.73;7.47;;;21.10;79.10;;;;;;4979092;28;20043;-63
2023/10/03 08:53:26;;;;;;;17.27;7.67;;;21.20;78.40;;;;;;4980408;28;20077;-62
2023/10/03 08:55:57;;;;;;;13.90;7.72;;;21.40;78.60;;;;;;4983141;28;20034;-62
2023/10/03 08:58:27;;;;;;;16.40;7.72;;;21.40;78.10;;;;;;4986216;28;20030;-62
2023/10/03 09:01:01;;;;;;;14.98;7.43;;;21.60;78.60;;;;;;4986830;28;20406;-62
2023/10/03 09:06:23;;;;;;;13.52;7.72;;;21.80;77.10;;;;;;4988021;28;20595;-62
2023/10/03 09:08:50;;;;;;;14.98;7.50;;;21.90;76.40;;;;;;4986489;28;20187;-62
2023/10/03 09:11:18;;;;;;;11.13;7.20;;;22.00;76.10;;;;;;4985527;28;20061;-62
2023/10/03 09:13:48;;;;;;;13.80;7.50;;;22.00;75.60;;;;;;4985671;28;20061;-63
2023/10/03 09:16:19;;;;;;;15.98;7.70;;;22.20;74.80;;;;;;4987034;28;20054;-62
2023/10/03 09:18:50;;;;;;;13.02;7.35;;;22.30;74.70;;;;;;4986745;28;20528;-62
2023/10/03 09:21:23;;;;;;;14.55;6.95;;;22.40;73.70;;;;;;4987547;28;20467;-61
2023/10/03 09:24:17;;;;;;;12.07;7.53;;;22.40;73.50;;;;;;4987235;28;20038;-62
2023/10/03 09:26:51;;;;;;;13.43;7.10;;;22.50;73.00;;;;;;4986630;28;20046;-62
2023/10/03 09:29:32;;;;;;;13.60;6.85;;;22.60;73.50;;;;;;4986913;28;20058;-62
2023/10/03 09:32:12;;;;;;;11.45;7.10;;;22.70;73.00;;;;;;4979630;28;20219;-62
2023/10/03 09:34:40;;;;;;;12.63;7.20;;;22.80;73.30;;;;;;4986367;28;20035;-62
2023/10/03 09:37:07;;;;;;;14.00;6.90;;;22.80;72.80;;;;;;4987583;28;20114;-60
2023/10/03 09:39:48;;;;;;;12.63;6.85;;;22.90;72.60;;;;;;4987195;28;20042;-62
2023/10/03 09:42:16;;;;;;;11.40;6.75;;;23.00;71.80;;;;;;4986191;28;20034;-62
2023/10/03 09:44:48;;;;;;;11.93;6.82;;;23.00;71.50;;;;;;4983925;28;20169;-62
2023/10/03 09:47:18;;;;;;;12.80;6.57;;;23.10;70.70;;;;;;4986700;28;20038;-63
2023/10/03 09:49:47;;;;;;;11.25;6.90;;;23.20;71.10;;;;;;4986927;28;20035;-62
2023/10/03 09:52:33;;;;;;;10.73;6.32;;;23.30;70.60;;;;;;4987548;28;20050;-63
2023/10/03 09:55:02;;;;;;;9.77;6.60;;;23.40;70.50;;;;;;4986275;28;20505;-63
2023/10/03 09:57:29;;;;;;;13.32;6.90;;;23.50;70.30;;;;;;4987184;28;20031;-63
2023/10/03 09:59:56;;;;;;;12.50;6.65;;;23.60;69.70;;;;;;4987110;28;20050;-61
2023/10/03 10:02:37;;;;;;;10.80;6.53;;;23.60;69.40;;;;;;4986117;28;20040;-61
2023/10/03 10:05:19;;;;;;;11.35;6.15;;;23.70;69.20;;;;;;4987229;28;20038;-62
2023/10/03 10:08:29;;;;;;;10.82;5.97;;;23.80;69.00;;;;;;4987626;28;20030;-62
2023/10/03 10:11:10;;;;;;;7.95;5.00;;;23.90;67.70;;;;;;4986249;28;20157;-62
2023/10/03 10:13:41;;;;;;;9.25;5.05;;;24.00;66.00;;;;;;4987382;28;20080;-62
2023/10/03 10:16:20;;;;;;;8.07;5.25;;;24.10;66.80;;;;;;4987739;28;20030;-62
2023/10/03 10:18:45;;;;;;;10.90;5.22;;;24.10;66.20;;;;;;4986814;28;20038;-61
2023/10/03 10:21:20;;;;;;;7.07;5.00;;;24.30;65.80;;;;;;4988033;28;20060;-62
2023/10/03 10:24:08;;;;;;;10.85;5.35;;;24.30;63.80;;;;;;4987149;28;20893;-62
2023/10/03 10:26:34;;;;;;;6.60;4.97;;;24.40;63.40;;;;;;4986408;28;20627;-62
2023/10/03 10:29:08;;;;;;;7.00;4.28;;;24.50;63.90;;;;;;4989148;28;20490;-61
2023/10/03 10:31:52;;;;;;;8.02;4.93;;;24.60;62.60;;;;;;4991456;28;20615;-62
2023/10/03 10:34:20;;;;;;;7.40;4.88;;;24.70;62.40;;;;;;4990932;28;20117;-61
2023/10/03 10:37:18;;;;;;;8.07;4.78;;;24.80;62.70;;;;;;4990665;28;20038;-62
2023/10/03 10:40:09;;;;;;;5.20;4.00;;;24.90;60.50;;;;;;4991020;28;20034;-63
2023/10/03 10:43:08;;;;;;;5.60;4.10;;;25.00;59.70;;;;;;4990021;28;20030;-63
2023/10/03 10:45:41;;;;;;;8.68;4.30;;;25.10;59.10;;;;;;4990851;28;20046;-63
2023/10/03 10:48:08;;;;;;;8.10;4.22;;;25.20;59.80;;;;;;4990106;28;20057;-62
2023/10/03 10:51:04;;;;;;;5.72;3.85;;;25.30;59.30;;;;;;4990633;28;20042;-62
2023/10/03 10:53:43;;;;;;;9.15;4.15;;;25.40;57.80;;;;;;4990347;28;20031;-62
2023/10/03 10:56:10;;;;;;;7.22;4.38;;;25.50;58.30;;;;;;4990902;28;20038;-62
2023/10/03 10:58:53;;;;;;;8.55;4.13;;;25.60;59.10;;;;;;4990183;28;20042;-62
2023/10/03 11:01:22;;;;;;;9.73;3.42;;;25.60;57.00;;;;;;4978390;28;20061;-63
2023/10/03 11:03:49;;;;;;;7.15;4.30;;;25.70;56.90;;;;;;4989234;28;20035;-62
2023/10/03 11:06:19;;;;;;;7.47;3.92;;;25.70;56.40;;;;;;4990010;28;20035;-61
2023/10/03 11:08:51;;;;;;;7.88;4.30;;;25.80;56.60;;;;;;4989629;28;20046;-62
2023/10/03 11:11:17;;;;;;;5.78;3.45;;;25.90;55.50;;;;;;4988886;28;20055;-62
2023/10/03 11:13:50;;;;;;;5.88;3.88;;;25.90;56.40;;;;;;4989007;28;20034;-62
2023/10/03 11:16:26;;;;;;;5.28;3.83;;;26.00;55.30;;;;;;4989351;28;20533;-62
2023/10/03 11:18:54;;;;;;;5.03;3.75;;;26.10;55.20;;;;;;4989899;28;20038;-63
2023/10/03 11:21:23;;;;;;;7.80;4.38;;;26.10;56.00;;;;;;4989594;28;20038;-62
2023/10/03 11:24:10;;;;;;;6.50;3.65;;;26.20;55.30;;;;;;4988107;28;20084;-62
2023/10/03 11:26:43;;;;;;;11.23;3.95;;;26.20;54.70;;;;;;4989002;28;20665;-63
2023/10/03 11:29:09;;;;;;;6.63;4.10;;;26.20;55.10;;;;;;4988816;28;20034;-62
2023/10/03 11:31:41;;;;;;;5.55;4.07;;;26.30;55.80;;;;;;4989025;28;20026;-62
2023/10/03 11:34:07;;;;;;;5.70;3.58;;;26.30;55.00;;;;;;4989002;28;20037;-62
2023/10/03 11:36:45;;;;;;;5.30;4.18;;;26.30;55.30;;;;;;4988738;28;20398;-63
2023/10/03 11:39:18;;;;;;;5.43;3.95;;;26.40;54.70;;;;;;4988359;28;20038;-63
2023/10/03 11:41:44;;;;;;;10.05;4.30;;;26.40;55.40;;;;;;4989391;28;20045;-63
2023/10/03 11:44:20;;;;;;;5.82;3.80;;;26.50;55.40;;;;;;4988198;28;20387;-63
2023/10/03 11:46:46;;;;;;;6.80;3.65;;;26.50;54.90;;;;;;4987397;28;20516;-61
2023/10/03 11:49:16;;;;;;;6.43;4.13;;;26.60;55.60;;;;;;4988627;28;20133;-61
2023/10/03 11:51:45;;;;;;;4.78;3.47;;;26.60;55.50;;;;;;4988888;28;20379;-63
2023/10/03 11:54:11;;;;;;;7.07;3.83;;;26.70;55.00;;;;;;4987620;28;20121;-63
2023/10/03 11:56:47;;;;;;;7.80;4.22;;;26.70;54.80;;;;;;4987779;28;20034;-63
2023/10/03 11:59:14;;;;;;;5.75;3.60;;;26.80;54.70;;;;;;4980171;28;20532;-63
2023/10/03 12:01:48;;;;;;;5.63;3.72;;;26.90;55.50;;;;;;4988153;28;20039;-63
2023/10/03 12:04:15;;;;;;;7.47;3.83;;;26.90;54.90;;;;;;4988058;28;20038;-63
2023/10/03 12:06:41;;;;;;;5.55;3.40;;;27.00;55.60;;;;;;4987923;28;20569;-63
2023/10/03 12:09:09;;;;;;;10.13;3.50;;;27.10;55.60;;;;;;4989382;28;20045;-63
2023/10/03 12:11:36;;;;;;;9.02;3.95;;;27.10;54.90;;;;;;4987429;28;20034;-63
2023/10/03 12:14:02;;;;;;;5.70;3.90;;;27.20;54.90;;;;;;4988257;28;20031;-63
2023/10/03 12:16:28;;;;;;;5.47;3.95;;;27.20;54.30;;;;;;4987710;28;20450;-63
2023/10/03 12:18:54;;;;;;;6.97;4.30;;;27.30;54.40;;;;;;4988700;28;20326;-62
2023/10/03 12:21:19;;;;;;;5.22;3.90;;;27.30;54.30;;;;;;4988882;28;20046;-63
2023/10/03 12:23:45;;;;;;;5.38;3.85;;;27.30;54.20;;;;;;4987886;28;20030;-63
2023/10/03 12:26:11;;;;;;;7.82;4.15;;;27.40;54.00;;;;;;4988378;28;20105;-63
2023/10/03 12:28:37;;;;;;;7.55;3.85;;;27.30;54.10;;;;;;4987189;28;20375;-61
2023/10/03 12:31:05;;;;;;;6.60;3.83;;;27.40;54.40;;;;;;4988703;28;20042;-63
2023/10/03 12:33:31;;;;;;;5.45;3.90;;;27.40;54.40;;;;;;4987308;28;20065;-63
2023/10/03 12:36:00;;;;;;;7.38;4.07;;;27.40;55.00;;;;;;4988547;28;20474;-63
2023/10/03 12:38:26;;;;;;;11.95;4.28;;;27.40;54.70;;;;;;4986643;28;20030;-63
2023/10/03 12:40:52;;;;;;;5.05;3.72;;;27.50;54.70;;;;;;4984702;28;20041;-63
2023/10/03 12:43:18;;;;;;;6.05;4.10;;;27.50;54.50;;;;;;4985731;28;20034;-63
2023/10/03 12:45:43;;;;;;;6.43;4.25;;;27.60;54.30;;;;;;4986796;28;20061;-61
2023/10/03 12:48:09;;;;;;;6.13;3.97;;;27.60;54.50;;;;;;4987831;28;20502;-62
2023/10/03 12:50:36;;;;;;;10.35;3.80;;;27.60;54.50;;;;;;4986341;28;20137;-63
2023/10/03 12:53:02;;;;;;;8.55;4.05;;;27.60;54.10;;;;;;4986810;28;20057;-63